Time,TemperatureF,DewpointF,PressureIn,WindDirection,WindDirectionDegrees,WindSpeedMPH,WindSpeedGustMPH,Humidity,HourlyPrecipIn,Conditions,Clouds,dailyrainin,SoftwareType,DateUTC
2013-01-18 00:00:00,40.0,36.0,-100.00,NE,35,1.0,-999.0,86,0.00,,,0.00,,2013-01-18 06:00:00,
2013-01-18 00:33:00,40.0,36.0,-100.00,NE,35,1.0,-999.0,86,0.00,,,0.00,,2013-01-18 06:33:00,
2013-01-18 00:43:00,40.0,36.0,-100.00,NE,35,1.0,-999.0,86,0.00,,,0.00,,2013-01-18 06:43:00,
2013-01-18 00:53:00,40.0,36.0,-100.00,NE,35,1.0,-999.0,86,0.00,,,0.00,,2013-01-18 06:53:00,
2013-01-18 01:00:00,39.0,35.0,-100.00,East,91,1.0,-999.0,85,0.00,,,0.00,,2013-01-18 07:00:00,
2013-01-18 01:32:00,39.0,35.0,-100.00,East,91,1.0,-999.0,85,0.00,,,0.00,,2013-01-18 07:32:00,
2013-01-18 01:42:00,39.0,35.0,-100.00,East,91,1.0,-999.0,85,0.00,,,0.00,,2013-01-18 07:42:00,
2013-01-18 01:52:00,39.0,35.0,-100.00,East,91,1.0,-999.0,85,0.00,,,0.00,,2013-01-18 07:52:00,
2013-01-18 02:00:00,38.0,35.0,-100.00,NE,41,1.0,-999.0,88,0.00,,,0.00,,2013-01-18 08:00:00,
2013-01-18 02:32:00,38.0,35.0,-100.00,NE,41,1.0,-999.0,88,0.00,,,0.00,,2013-01-18 08:32:00,
2013-01-18 02:43:00,38.0,35.0,-100.00,NE,41,1.0,-999.0,88,0.00,,,0.00,,2013-01-18 08:43:00,
2013-01-18 02:53:00,38.0,35.0,-100.00,NE,41,1.0,-999.0,88,0.00,,,0.00,,2013-01-18 08:53:00,
2013-01-18 03:00:00,38.0,36.0,-100.00,ENE,68,1.0,-999.0,92,0.00,,,0.00,,2013-01-18 09:00:00,
2013-01-18 03:33:00,38.0,36.0,-100.00,ENE,68,1.0,-999.0,92,0.00,,,0.00,,2013-01-18 09:33:00,
2013-01-18 03:43:00,38.0,36.0,-100.00,ENE,68,1.0,-999.0,92,0.00,,,0.00,,2013-01-18 09:43:00,
2013-01-18 03:53:00,38.0,36.0,-100.00,ENE,68,1.0,-999.0,92,0.00,,,0.00,,2013-01-18 09:53:00,
2013-01-18 04:00:00,35.0,34.0,-100.00,SSE,167,1.0,-999.0,96,0.00,,,0.00,,2013-01-18 10:00:00,
2013-01-18 04:32:00,35.0,34.0,-100.00,SSE,167,1.0,-999.0,96,0.00,,,0.00,,2013-01-18 10:32:00,
2013-01-18 04:43:00,35.0,34.0,-100.00,SSE,167,1.0,-999.0,96,0.00,,,0.00,,2013-01-18 10:43:00,
2013-01-18 04:53:00,35.0,34.0,-100.00,SSE,167,1.0,-999.0,96,0.00,,,0.00,,2013-01-18 10:53:00,
2013-01-18 05:00:00,32.0,30.0,-100.00,South,176,2.0,-999.0,96,0.00,,,0.00,,2013-01-18 11:00:00,
2013-01-18 05:32:00,32.0,30.0,-100.00,South,176,2.0,-999.0,96,0.00,,,0.00,,2013-01-18 11:32:00,
2013-01-18 05:42:00,32.0,30.0,-100.00,South,176,2.0,-999.0,96,0.00,,,0.00,,2013-01-18 11:42:00,
2013-01-18 05:53:00,32.0,30.0,-100.00,South,176,2.0,-999.0,96,0.00,,,0.00,,2013-01-18 11:53:00,
2013-01-18 06:00:00,33.0,30.0,-100.00,SSE,163,1.0,-999.0,86,0.00,,,0.00,,2013-01-18 12:00:00,
2013-01-18 06:33:00,33.0,30.0,-100.00,SSE,163,1.0,-999.0,86,0.00,,,0.00,,2013-01-18 12:33:00,
2013-01-18 06:43:00,33.0,30.0,-100.00,SSE,163,1.0,-999.0,86,0.00,,,0.00,,2013-01-18 12:43:00,
2013-01-18 06:53:00,33.0,30.0,-100.00,SSE,163,1.0,-999.0,86,0.00,,,0.00,,2013-01-18 12:53:00,
2013-01-18 07:00:00,35.0,31.0,-100.00,NE,54,0.0,-999.0,85,0.00,,,0.00,,2013-01-18 13:00:00,
2013-01-18 07:33:00,35.0,31.0,-100.00,NE,54,0.0,-999.0,85,0.00,,,0.00,,2013-01-18 13:33:00,
2013-01-18 07:43:00,35.0,31.0,-100.00,NE,54,0.0,-999.0,85,0.00,,,0.00,,2013-01-18 13:43:00,
2013-01-18 07:53:00,35.0,31.0,-100.00,NE,54,0.0,-999.0,85,0.00,,,0.00,,2013-01-18 13:53:00,
2013-01-18 08:00:00,31.0,29.0,-100.00,South,178,2.0,-999.0,92,0.00,,,0.00,,2013-01-18 14:00:00,
2013-01-18 08:33:00,31.0,29.0,-100.00,South,178,2.0,-999.0,92,0.00,,,0.00,,2013-01-18 14:33:00,
2013-01-18 08:43:00,31.0,29.0,-100.00,South,178,2.0,-999.0,92,0.00,,,0.00,,2013-01-18 14:43:00,
2013-01-18 08:53:00,31.0,29.0,-100.00,South,178,2.0,-999.0,92,0.00,,,0.00,,2013-01-18 14:53:00,
2013-01-18 09:00:00,34.0,30.0,-100.00,SSW,212,1.0,-999.0,84,0.00,,,0.00,,2013-01-18 15:00:00,
2013-01-18 09:33:00,34.0,30.0,-100.00,SSW,212,1.0,-999.0,84,0.00,,,0.00,,2013-01-18 15:33:00,
2013-01-18 09:43:00,34.0,30.0,-100.00,SSW,212,1.0,-999.0,84,0.00,,,0.00,,2013-01-18 15:43:00,
2013-01-18 09:54:00,34.0,30.0,-100.00,SSW,212,1.0,-999.0,84,0.00,,,0.00,,2013-01-18 15:54:00,
2013-01-18 10:00:00,43.0,30.0,-100.00,SSW,196,2.0,-999.0,61,0.00,,,0.00,,2013-01-18 16:00:00,
2013-01-18 10:33:00,43.0,30.0,-100.00,SSW,196,2.0,-999.0,61,0.00,,,0.00,,2013-01-18 16:33:00,
2013-01-18 10:43:00,43.0,30.0,-100.00,SSW,196,2.0,-999.0,61,0.00,,,0.00,,2013-01-18 16:43:00,
2013-01-18 10:53:00,43.0,30.0,-100.00,SSW,196,2.0,-999.0,61,0.00,,,0.00,,2013-01-18 16:53:00,
2013-01-18 11:00:00,46.0,25.0,-100.00,South,180,3.0,-999.0,43,0.00,,,0.00,,2013-01-18 17:00:00,
2013-01-18 11:33:00,46.0,25.0,-100.00,South,180,3.0,-999.0,43,0.00,,,0.00,,2013-01-18 17:33:00,
2013-01-18 11:43:00,46.0,25.0,-100.00,South,180,3.0,-999.0,43,0.00,,,0.00,,2013-01-18 17:43:00,
2013-01-18 11:53:00,46.0,25.0,-100.00,South,180,3.0,-999.0,43,0.00,,,0.00,,2013-01-18 17:53:00,
2013-01-18 12:00:00,48.0,27.0,-100.00,South,171,2.0,-999.0,43,0.00,,,0.00,,2013-01-18 18:00:00,
2013-01-18 12:33:00,48.0,27.0,-100.00,South,171,2.0,-999.0,43,0.00,,,0.00,,2013-01-18 18:33:00,
2013-01-18 12:43:00,48.0,27.0,-100.00,South,171,2.0,-999.0,43,0.00,,,0.00,,2013-01-18 18:43:00,
2013-01-18 12:53:00,48.0,27.0,-100.00,South,171,2.0,-999.0,43,0.00,,,0.00,,2013-01-18 18:53:00,
2013-01-18 13:00:00,52.0,27.0,-100.00,South,173,3.0,-999.0,38,0.00,,,0.00,,2013-01-18 19:00:00,
2013-01-18 13:33:00,52.0,27.0,-100.00,South,173,3.0,-999.0,38,0.00,,,0.00,,2013-01-18 19:33:00,
2013-01-18 13:43:00,52.0,27.0,-100.00,South,173,3.0,-999.0,38,0.00,,,0.00,,2013-01-18 19:43:00,
2013-01-18 13:53:00,52.0,27.0,-100.00,South,173,3.0,-999.0,38,0.00,,,0.00,,2013-01-18 19:53:00,
2013-01-18 14:00:00,54.0,26.0,-100.00,South,182,2.0,-999.0,33,0.00,,,0.00,,2013-01-18 20:00:00,
2013-01-18 14:33:00,54.0,26.0,-100.00,South,182,2.0,-999.0,33,0.00,,,0.00,,2013-01-18 20:33:00,
2013-01-18 14:43:00,54.0,26.0,-100.00,South,182,2.0,-999.0,33,0.00,,,0.00,,2013-01-18 20:43:00,
2013-01-18 14:53:00,54.0,26.0,-100.00,South,182,2.0,-999.0,33,0.00,,,0.00,,2013-01-18 20:53:00,
2013-01-18 15:00:00,56.0,26.0,-100.00,SSE,166,3.0,-999.0,32,0.00,,,0.00,,2013-01-18 21:00:00,
2013-01-18 15:33:00,56.0,26.0,-100.00,SSE,166,3.0,-999.0,32,0.00,,,0.00,,2013-01-18 21:33:00,
2013-01-18 15:43:00,56.0,26.0,-100.00,SSE,166,3.0,-999.0,32,0.00,,,0.00,,2013-01-18 21:43:00,
2013-01-18 15:53:00,56.0,26.0,-100.00,SSE,166,3.0,-999.0,32,0.00,,,0.00,,2013-01-18 21:53:00,
2013-01-18 17:00:00,54.0,25.0,-100.00,South,182,3.0,-999.0,32,0.00,,,0.00,,2013-01-18 23:00:00,
2013-01-18 17:33:00,54.0,25.0,-100.00,South,182,3.0,-999.0,32,0.00,,,0.00,,2013-01-18 23:33:00,
2013-01-18 17:43:00,54.0,25.0,-100.00,South,182,3.0,-999.0,32,0.00,,,0.00,,2013-01-18 23:43:00,
2013-01-18 17:53:00,54.0,25.0,-100.00,South,182,3.0,-999.0,32,0.00,,,0.00,,2013-01-18 23:53:00,
2013-01-18 18:00:00,48.0,28.0,-100.00,SE,145,1.0,-999.0,46,0.00,,,0.00,,2013-01-19 00:00:00,
2013-01-18 18:33:00,48.0,28.0,-100.00,SE,145,1.0,-999.0,46,0.00,,,0.00,,2013-01-19 00:33:00,
2013-01-18 18:43:00,48.0,28.0,-100.00,SE,145,1.0,-999.0,46,0.00,,,0.00,,2013-01-19 00:43:00,
2013-01-18 18:53:00,48.0,28.0,-100.00,SE,145,1.0,-999.0,46,0.00,,,0.00,,2013-01-19 00:53:00,
2013-01-18 19:00:00,42.0,30.0,-100.00,SSE,161,2.0,-999.0,61,0.00,,,0.00,,2013-01-19 01:00:00,
2013-01-18 19:33:00,42.0,30.0,-100.00,SSE,161,2.0,-999.0,61,0.00,,,0.00,,2013-01-19 01:33:00,
2013-01-18 19:43:00,42.0,30.0,-100.00,SSE,161,2.0,-999.0,61,0.00,,,0.00,,2013-01-19 01:43:00,
2013-01-18 19:53:00,42.0,30.0,-100.00,SSE,161,2.0,-999.0,61,0.00,,,0.00,,2013-01-19 01:53:00,
2013-01-18 20:00:00,39.0,29.0,-100.00,South,172,2.0,-999.0,67,0.00,,,0.00,,2013-01-19 02:00:00,
2013-01-18 20:33:00,39.0,29.0,-100.00,South,172,2.0,-999.0,67,0.00,,,0.00,,2013-01-19 02:33:00,
2013-01-18 20:43:00,39.0,29.0,-100.00,South,172,2.0,-999.0,67,0.00,,,0.00,,2013-01-19 02:43:00,
2013-01-18 20:53:00,39.0,29.0,-100.00,South,172,2.0,-999.0,67,0.00,,,0.00,,2013-01-19 02:53:00,
2013-01-18 21:00:00,37.0,30.0,-100.00,SSE,163,2.0,-999.0,73,0.00,,,0.00,,2013-01-19 03:00:00,
2013-01-18 21:33:00,37.0,30.0,-100.00,SSE,163,2.0,-999.0,73,0.00,,,0.00,,2013-01-19 03:33:00,
2013-01-18 21:44:00,37.0,30.0,-100.00,SSE,163,2.0,-999.0,73,0.00,,,0.00,,2013-01-19 03:44:00,
2013-01-18 21:53:00,37.0,30.0,-100.00,SSE,163,2.0,-999.0,73,0.00,,,0.00,,2013-01-19 03:53:00,
2013-01-18 22:00:00,33.0,29.0,-100.00,South,182,3.0,-999.0,84,0.00,,,0.00,,2013-01-19 04:00:00,
2013-01-18 22:32:00,33.0,29.0,-100.00,South,182,3.0,-999.0,84,0.00,,,0.00,,2013-01-19 04:32:00,
2013-01-18 22:43:00,33.0,29.0,-100.00,South,182,3.0,-999.0,84,0.00,,,0.00,,2013-01-19 04:43:00,
2013-01-18 22:53:00,33.0,29.0,-100.00,South,182,3.0,-999.0,84,0.00,,,0.00,,2013-01-19 04:53:00,
2013-01-18 23:00:00,33.0,28.0,-100.00,South,185,3.0,-999.0,81,0.00,,,0.00,,2013-01-19 05:00:00,
2013-01-18 23:33:00,33.0,28.0,-100.00,South,185,3.0,-999.0,81,0.00,,,0.00,,2013-01-19 05:33:00,
2013-01-18 23:43:00,33.0,28.0,-100.00,South,185,3.0,-999.0,81,0.00,,,0.00,,2013-01-19 05:43:00,
2013-01-18 23:53:00,33.0,28.0,-100.00,South,185,3.0,-999.0,81,0.00,,,0.00,,2013-01-19 05:53:00,